PWSweather.com
Personal Weather Stations
Station Observations
JOE4SPEED
Jupiter, Fl, Jupiter, FL 33458

Jupiter, FlJupiter, FL 33458

Lat: 26.9373, Lon: -80.1101

Elevation: 12

Station Type: Davis VP 2

http://www.joe4speed.com/wxindex.php

Latest ConditionsUpdated 10:00:01 AM EST Friday, Feb 24, 2017
Currently Today's Max Today's Min Today's Average
Temperature 77.5°F25.3°C 77.5°F25.3°C 63.5°F17.5°C 66.5°F19.2°C
Dew Point 70.1°F21.2°C 70.1°F21.2°C 59.6°F15.3°C 62.0°F16.7°C
Winds 2.3 mph WNW3.7 kmh WNW 5.8 mph NW9.3 kmh NW - 2.8 mph 4.5 kmh
Wind Gusts 4.6 mph7.4 kmh 9.2 mph14.8 kmh - -
Humidity 78% 87% 77% 85%
Pressure 29.78 in1008.5 mb 29.78 in1008.5 mb 29.68 in1005.1 mb -
Hour Temp Dew Point Humidity Winds Wind Gusts Pressure Precip Precip Rate Daily Precip Total
10:00 AM 77.5°F25.3°C 70.1°F21.2°C 78% 2.3 mph WNW3.7 kmh WNW 4.6 mph7.4 kmh 29.78 in1008.5 mb - 0.00 in0.0 mm 0.00 in0.0 mm
09:50 AM 77.3°F25.2°C 69.5°F20.8°C 77% 3.5 mph WNW5.6 kmh WNW 5.8 mph9.3 kmh 29.78 in1008.5 mb - 0.00 in0.0 mm 0.00 in0.0 mm
09:40 AM 77.2°F25.1°C 69.8°F21.0°C 78% 4.6 mph WNW7.4 kmh WNW 6.9 mph11.1 kmh 29.78 in1008.5 mb - 0.00 in0.0 mm 0.00 in0.0 mm
09:30 AM 76.7°F24.8°C 70.0°F21.1°C 80% 5.8 mph NW9.3 kmh NW 6.9 mph11.1 kmh 29.78 in1008.5 mb - 0.00 in0.0 mm 0.00 in0.0 mm
09:20 AM 75.2°F24.0°C 69.3°F20.7°C 82% 4.6 mph W7.4 kmh W 6.9 mph11.1 kmh 29.78 in1008.5 mb - 0.00 in0.0 mm 0.00 in0.0 mm
09:10 AM 74.0°F23.3°C 68.8°F20.4°C 84% 3.5 mph NW5.6 kmh NW 4.6 mph7.4 kmh 29.78 in1008.5 mb - 0.00 in0.0 mm 0.00 in0.0 mm
09:00 AM 72.3°F22.4°C 67.5°F19.7°C 85% 4.6 mph WNW7.4 kmh WNW 6.9 mph11.1 kmh 29.78 in1008.5 mb - 0.00 in0.0 mm 0.00 in0.0 mm
08:50 AM 70.6°F21.4°C 66.5°F19.2°C 87% 2.3 mph NW3.7 kmh NW 4.6 mph7.4 kmh 29.77 in1008.1 mb - 0.00 in0.0 mm 0.00 in0.0 mm
08:40 AM 69.1°F20.6°C 65.1°F18.4°C 87% 4.6 mph NW7.4 kmh NW 5.8 mph9.3 kmh 29.77 in1008.1 mb - 0.00 in0.0 mm 0.00 in0.0 mm
08:30 AM 68.5°F20.3°C 64.5°F18.1°C 87% 4.6 mph W7.4 kmh W 6.9 mph11.1 kmh 29.76 in1007.8 mb - 0.00 in0.0 mm 0.00 in0.0 mm
08:20 AM 67.8°F19.9°C 63.8°F17.7°C 87% 1.2 mph NW1.9 kmh NW 3.5 mph5.6 kmh 29.76 in1007.8 mb - 0.00 in0.0 mm 0.00 in0.0 mm
08:10 AM 67.4°F19.7°C 63.4°F17.4°C 87% 4.6 mph WSW7.4 kmh WSW 4.6 mph7.4 kmh 29.75 in1007.5 mb - 0.00 in0.0 mm 0.00 in0.0 mm
08:00 AM 67.0°F19.4°C 63.0°F17.2°C 87% 1.2 mph WSW1.9 kmh WSW 3.5 mph5.6 kmh 29.75 in1007.5 mb - 0.00 in0.0 mm 0.00 in0.0 mm
07:50 AM 66.6°F19.2°C 62.6°F17.0°C 87% 2.3 mph WNW3.7 kmh WNW 5.8 mph9.3 kmh 29.75 in1007.5 mb - 0.00 in0.0 mm 0.00 in0.0 mm
07:40 AM 66.4°F19.1°C 62.4°F16.9°C 87% 3.5 mph W5.6 kmh W 4.6 mph7.4 kmh 29.75 in1007.5 mb - 0.00 in0.0 mm 0.00 in0.0 mm
07:30 AM 66.1°F18.9°C 62.1°F16.7°C 87% 4.6 mph WNW7.4 kmh WNW 5.8 mph9.3 kmh 29.74 in1007.1 mb - 0.00 in0.0 mm 0.00 in0.0 mm
07:20 AM 65.9°F18.8°C 61.9°F16.6°C 87% 2.3 mph WNW3.7 kmh WNW 4.6 mph7.4 kmh 29.74 in1007.1 mb - 0.00 in0.0 mm 0.00 in0.0 mm
07:10 AM 65.7°F18.7°C 61.7°F16.5°C 87% 3.5 mph NW5.6 kmh NW 5.8 mph9.3 kmh 29.74 in1007.1 mb - 0.00 in0.0 mm 0.00 in0.0 mm
07:00 AM 65.6°F18.7°C 61.6°F16.4°C 87% 3.5 mph NW5.6 kmh NW 6.9 mph11.1 kmh 29.74 in1007.1 mb - 0.00 in0.0 mm 0.00 in0.0 mm
06:50 AM 65.4°F18.6°C 61.5°F16.4°C 87% 3.5 mph NW5.6 kmh NW 5.8 mph9.3 kmh 29.74 in1007.1 mb - 0.00 in0.0 mm 0.00 in0.0 mm
06:40 AM 65.4°F18.6°C 61.4°F16.3°C 87% 4.6 mph NW7.4 kmh NW 9.2 mph14.8 kmh 29.73 in1006.8 mb - 0.00 in0.0 mm 0.00 in0.0 mm
06:30 AM 65.3°F18.5°C 61.3°F16.3°C 87% 5.8 mph NW9.3 kmh NW 8.1 mph13.0 kmh 29.72 in1006.4 mb - 0.00 in0.0 mm 0.00 in0.0 mm
06:20 AM 65.2°F18.4°C 61.2°F16.2°C 87% 4.6 mph WNW7.4 kmh WNW 4.6 mph7.4 kmh 29.72 in1006.4 mb - 0.00 in0.0 mm 0.00 in0.0 mm
06:10 AM 65.0°F18.3°C 61.0°F16.1°C 87% 3.5 mph NW5.6 kmh NW 4.6 mph7.4 kmh 29.72 in1006.4 mb - 0.00 in0.0 mm 0.00 in0.0 mm
06:00 AM 64.9°F18.3°C 60.9°F16.1°C 87% 5.8 mph NW9.3 kmh NW 8.1 mph13.0 kmh 29.71 in1006.1 mb - 0.00 in0.0 mm 0.00 in0.0 mm
05:50 AM 64.8°F18.2°C 60.8°F16.0°C 87% 4.6 mph NW7.4 kmh NW 5.8 mph9.3 kmh 29.71 in1006.1 mb - 0.00 in0.0 mm 0.00 in0.0 mm
05:40 AM 64.6°F18.1°C 60.6°F15.9°C 87% 2.3 mph NW3.7 kmh NW 5.8 mph9.3 kmh 29.71 in1006.1 mb - 0.00 in0.0 mm 0.00 in0.0 mm
05:30 AM 64.4°F18.0°C 60.4°F15.8°C 87% 3.5 mph WNW5.6 kmh WNW 5.8 mph9.3 kmh 29.71 in1006.1 mb - 0.00 in0.0 mm 0.00 in0.0 mm
05:20 AM 64.1°F17.8°C 60.2°F15.7°C 87% 4.6 mph WNW7.4 kmh WNW 5.8 mph9.3 kmh 29.70 in1005.8 mb - 0.00 in0.0 mm 0.00 in0.0 mm
05:10 AM 63.7°F17.6°C 59.8°F15.4°C 87% 2.3 mph NW3.7 kmh NW 4.6 mph7.4 kmh 29.70 in1005.8 mb - 0.00 in0.0 mm 0.00 in0.0 mm
05:00 AM 63.5°F17.5°C 59.6°F15.3°C 87% 3.5 mph NW5.6 kmh NW 4.6 mph7.4 kmh 29.70 in1005.8 mb - 0.00 in0.0 mm 0.00 in0.0 mm
04:50 AM 63.6°F17.6°C 59.7°F15.4°C 87% 4.6 mph WNW7.4 kmh WNW 6.9 mph11.1 kmh 29.70 in1005.8 mb - 0.00 in0.0 mm 0.00 in0.0 mm
04:40 AM 63.7°F17.6°C 59.8°F15.4°C 87% 3.5 mph NW5.6 kmh NW 4.6 mph7.4 kmh 29.70 in1005.8 mb - 0.00 in0.0 mm 0.00 in0.0 mm
04:30 AM 63.8°F17.7°C 59.9°F15.5°C 87% 5.8 mph WNW9.3 kmh WNW 8.1 mph13.0 kmh 29.70 in1005.8 mb - 0.00 in0.0 mm 0.00 in0.0 mm
04:20 AM 64.0°F17.8°C 60.1°F15.6°C 87% 5.8 mph NW9.3 kmh NW 8.1 mph13.0 kmh 29.69 in1005.4 mb - 0.00 in0.0 mm 0.00 in0.0 mm
04:10 AM 64.1°F17.8°C 60.2°F15.7°C 87% 3.5 mph WNW5.6 kmh WNW 6.9 mph11.1 kmh 29.69 in1005.4 mb - 0.00 in0.0 mm 0.00 in0.0 mm
04:00 AM 64.2°F17.9°C 60.2°F15.7°C 87% 3.5 mph NW5.6 kmh NW 6.9 mph11.1 kmh 29.69 in1005.4 mb - 0.00 in0.0 mm 0.00 in0.0 mm
03:50 AM 64.2°F17.9°C 60.2°F15.7°C 87% 3.5 mph WNW5.6 kmh WNW 3.5 mph5.6 kmh 29.68 in1005.1 mb - 0.00 in0.0 mm 0.00 in0.0 mm
03:40 AM 64.0°F17.8°C 59.7°F15.4°C 86% 2.3 mph WNW3.7 kmh WNW 3.5 mph5.6 kmh 29.69 in1005.4 mb - 0.00 in0.0 mm 0.00 in0.0 mm
03:30 AM 63.9°F17.7°C 59.7°F15.4°C 86% Calm Calm 3.5 mph5.6 kmh 29.68 in1005.1 mb - 0.00 in0.0 mm 0.00 in0.0 mm
03:20 AM 63.9°F17.7°C 59.6°F15.3°C 86% Calm Calm -- 29.68 in1005.1 mb - 0.00 in0.0 mm 0.00 in0.0 mm
03:10 AM 63.9°F17.7°C 59.6°F15.3°C 86% Calm Calm -- 29.68 in1005.1 mb - 0.00 in0.0 mm 0.00 in0.0 mm
03:00 AM 63.9°F17.7°C 59.6°F15.3°C 86% Calm Calm -- 29.68 in1005.1 mb - 0.00 in0.0 mm 0.00 in0.0 mm
02:50 AM 63.9°F17.7°C 59.6°F15.3°C 86% 1.2 mph W1.9 kmh W 2.3 mph3.7 kmh 29.69 in1005.4 mb - 0.00 in0.0 mm 0.00 in0.0 mm
02:40 AM 64.0°F17.8°C 59.7°F15.4°C 86% Calm Calm -- 29.69 in1005.4 mb - 0.00 in0.0 mm 0.00 in0.0 mm
02:30 AM 64.3°F17.9°C 59.7°F15.4°C 85% Calm Calm -- 29.69 in1005.4 mb - 0.00 in0.0 mm 0.00 in0.0 mm
02:20 AM 64.6°F18.1°C 60.0°F15.6°C 85% Calm Calm -- 29.69 in1005.4 mb - 0.00 in0.0 mm 0.00 in0.0 mm
02:10 AM 64.9°F18.3°C 60.3°F15.7°C 85% Calm Calm -- 29.69 in1005.4 mb - 0.00 in0.0 mm 0.00 in0.0 mm
02:00 AM 65.2°F18.4°C 60.6°F15.9°C 85% Calm Calm -- 29.70 in1005.8 mb - 0.00 in0.0 mm 0.00 in0.0 mm
01:50 AM 65.5°F18.6°C 60.9°F16.1°C 85% Calm Calm -- 29.69 in1005.4 mb - 0.00 in0.0 mm 0.00 in0.0 mm
01:10 AM 66.2°F19.0°C 61.2°F16.2°C 84% Calm Calm -- 29.70 in1005.8 mb - 0.00 in0.0 mm 0.00 in0.0 mm
01:00 AM 66.0°F18.9°C 61.0°F16.1°C 84% 2.3 mph W3.7 kmh W 3.5 mph5.6 kmh 29.70 in1005.8 mb - 0.00 in0.0 mm 0.00 in0.0 mm
12:50 AM 65.8°F18.8°C 60.8°F16.0°C 84% 2.3 mph WSW3.7 kmh WSW 3.5 mph5.6 kmh 29.70 in1005.8 mb - 0.00 in0.0 mm 0.00 in0.0 mm
12:40 AM 65.5°F18.6°C 60.5°F15.8°C 84% Calm Calm 3.5 mph5.6 kmh 29.70 in1005.8 mb - 0.00 in0.0 mm 0.00 in0.0 mm
12:30 AM 65.3°F18.5°C 60.0°F15.6°C 83% 2.3 mph WSW3.7 kmh WSW 3.5 mph5.6 kmh 29.70 in1005.8 mb - 0.00 in0.0 mm 0.00 in0.0 mm
12:20 AM 65.4°F18.6°C 59.8°F15.4°C 82% 2.3 mph WSW3.7 kmh WSW 3.5 mph5.6 kmh 29.70 in1005.8 mb - 0.00 in0.0 mm 0.00 in0.0 mm
12:10 AM 65.7°F18.7°C 60.1°F15.6°C 82% 2.3 mph WSW3.7 kmh WSW 3.5 mph5.6 kmh 29.70 in1005.8 mb - 0.00 in0.0 mm 0.00 in0.0 mm
12:00 AM 65.9°F18.8°C 60.2°F15.7°C 82% 1.2 mph WSW1.9 kmh WSW 3.5 mph5.6 kmh 29.69 in1005.4 mb - 0.00 in0.0 mm 0.00 in0.0 mm